Time;durP1;ratioP1;P1;durP2;ratioP2;P2;SDS_P1;SDS_P2;PMS_P1;PMS_P2;Temp;Humidity;BMP_temperature;BMP_pressure;BME280_temperature;BME280_humidity;BME280_pressure;Samples;Min_cycle;Max_cycle;Signal;HPM_P1;HPM_P2
2023/10/25 00:02:23;;;;;;;16.07;8.33;;;;;;;;;;5050650;28;20051;-62
2023/10/25 00:04:53;;;;;;;16.37;8.50;;;;;;;;;;5050970;28;20045;-62
2023/10/25 00:07:19;;;;;;;18.23;9.43;;;;;;;;;;5065530;28;20048;-62
2023/10/25 00:09:46;;;;;;;17.90;8.23;;;;;;;;;;5070909;28;20052;-62
2023/10/25 00:12:12;;;;;;;20.60;9.17;;;;;;;;;;5070578;28;20828;-62
2023/10/25 00:14:38;;;;;;;15.87;8.20;;;;;;;;;;5068177;28;20465;-62
2023/10/25 00:17:04;;;;;;;18.10;8.93;;;;;;;;;;5052566;28;20091;-62
2023/10/25 00:19:30;;;;;;;19.47;8.53;;;;;;;;;;5060518;28;20044;-62
2023/10/25 00:21:56;;;;;;;18.53;8.63;;;;;;;;;;5051526;28;20045;-62
2023/10/25 00:24:23;;;;;;;18.00;9.33;;;;;;;;;;5050024;28;20056;-62
2023/10/25 00:26:50;;;;;;;16.20;8.50;;;;;;;;;;5050284;28;20179;-62
2023/10/25 00:29:16;;;;;;;18.03;9.23;;;;;;;;;;5050278;28;20049;-62
2023/10/25 00:31:43;;;;;;;24.43;9.30;;;;;;;;;;5068098;28;20041;-62
2023/10/25 00:34:09;;;;;;;20.70;8.73;;;;;;;;;;5064933;28;20098;-61
2023/10/25 00:36:35;;;;;;;22.57;9.37;;;;;;;;;;5058288;28;20739;-62
2023/10/25 00:39:01;;;;;;;18.27;9.67;;;;;;;;;;5069666;28;20544;-62
2023/10/25 00:41:27;;;;;;;24.67;10.37;;;;;;;;;;5069308;28;20052;-62
2023/10/25 00:43:54;;;;;;;17.07;9.40;;;;;;;;;;5069802;28;20052;-62
2023/10/25 00:46:25;;;;;;;20.93;11.07;;;;;;;;;;5069619;28;20049;-62
2023/10/25 00:48:53;;;;;;;15.27;8.70;;;;;;;;;;5069595;28;20499;-62
2023/10/25 00:51:20;;;;;;;18.80;10.07;;;;;;;;;;5061455;28;20123;-62
2023/10/25 00:53:56;;;;;;;26.90;10.70;;;;;;;;;;5049454;28;20053;-62
2023/10/25 00:56:26;;;;;;;18.60;10.20;;;;;;;;;;5049517;28;20084;-63
2023/10/25 00:58:56;;;;;;;25.63;11.87;;;;;;;;;;5049446;28;20045;-65
2023/10/25 01:01:26;;;;;;;24.17;10.90;;;;;;;;;;5049844;28;20044;-62
2023/10/25 01:03:52;;;;;;;20.83;9.57;;;;;;;;;;5050826;28;20060;-62
2023/10/25 01:06:19;;;;;;;20.13;9.60;;;;;;;;;;5052685;28;20041;-60
2023/10/25 01:08:45;;;;;;;25.30;10.73;;;;;;;;;;5066905;28;20556;-63
2023/10/25 01:11:11;;;;;;;24.37;12.03;;;;;;;;;;5069723;28;20045;-60
2023/10/25 01:13:38;;;;;;;19.33;10.73;;;;;;;;;;5068940;28;20055;-60
2023/10/25 01:16:04;;;;;;;23.27;10.70;;;;;;;;;;5067871;28;20411;-60
2023/10/25 01:18:30;;;;;;;23.10;11.40;;;;;;;;;;5069569;28;20048;-60
2023/10/25 01:20:56;;;;;;;25.13;11.87;;;;;;;;;;5068698;28;20044;-60
2023/10/25 01:23:22;;;;;;;34.43;13.03;;;;;;;;;;5068885;28;20064;-60
2023/10/25 01:25:48;;;;;;;25.27;11.20;;;;;;;;;;5069127;28;20805;-60
2023/10/25 01:28:14;;;;;;;25.87;12.47;;;;;;;;;;5048506;28;20751;-60
2023/10/25 01:30:41;;;;;;;23.47;11.63;;;;;;;;;;5054965;28;20052;-60
2023/10/25 01:33:07;;;;;;;26.67;12.80;;;;;;;;;;5050259;28;20043;-60
2023/10/25 01:35:34;;;;;;;26.73;12.67;;;;;;;;;;5049427;28;20131;-60
2023/10/25 01:38:00;;;;;;;25.67;12.47;;;;;;;;;;5050187;28;20226;-60
2023/10/25 01:40:26;;;;;;;23.33;13.73;;;;;;;;;;5049663;28;20049;-60
2023/10/25 01:42:54;;;;;;;34.43;14.00;;;;;;;;;;5049769;28;20048;-60
2023/10/25 01:45:22;;;;;;;37.87;14.77;;;;;;;;;;5049425;28;20045;-60
2023/10/25 01:47:48;;;;;;;36.10;15.53;;;;;;;;;;5049584;28;20043;-60
2023/10/25 01:50:14;;;;;;;28.43;13.60;;;;;;;;;;5049120;28;20060;-60
2023/10/25 01:52:39;;;;;;;26.40;13.93;;;;;;;;;;5049876;28;20064;-60
2023/10/25 01:55:06;;;;;;;39.67;16.80;;;;;;;;;;5049634;28;20091;-60
2023/10/25 01:57:32;;;;;;;33.47;14.97;;;;;;;;;;5049165;28;20460;-60
2023/10/25 01:59:58;;;;;;;33.40;16.37;;;;;;;;;;5049724;28;20131;-60
2023/10/25 02:02:24;;;;;;;33.80;14.70;;;;;;;;;;5049426;28;20041;-61
2023/10/25 02:04:50;;;;;;;35.93;17.03;;;;;;;;;;5049604;28;20076;-60
2023/10/25 02:07:16;;;;;;;25.00;13.83;;;;;;;;;;5049371;28;20037;-60
2023/10/25 02:09:42;;;;;;;27.43;13.50;;;;;;;;;;5049857;28;20521;-60
2023/10/25 02:12:08;;;;;;;37.17;15.03;;;;;;;;;;5049666;28;20073;-60
2023/10/25 02:14:36;;;;;;;27.10;14.13;;;;;;;;;;5060684;28;20063;-60
2023/10/25 02:17:02;;;;;;;31.70;15.37;;;;;;;;;;5069447;28;20052;-61
2023/10/25 02:19:28;;;;;;;29.50;15.30;;;;;;;;;;5069126;28;20051;-60
2023/10/25 02:21:54;;;;;;;29.43;14.97;;;;;;;;;;5069668;28;20036;-60
2023/10/25 02:24:20;;;;;;;37.17;16.87;;;;;;;;;;5060737;28;20470;-60
2023/10/25 02:26:46;;;;;;;35.57;14.00;;;;;;;;;;5049397;28;20045;-60
2023/10/25 02:29:12;;;;;;;29.67;12.80;;;;;;;;;;5059955;28;20041;-60
2023/10/25 02:31:38;;;;;;;29.83;14.43;;;;;;;;;;5069364;28;20076;-60
2023/10/25 02:34:04;;;;;;;30.77;14.70;;;;;;;;;;5069282;28;20129;-60
2023/10/25 02:36:30;;;;;;;27.17;13.53;;;;;;;;;;5068932;28;20044;-60
2023/10/25 02:38:59;;;;;;;27.10;13.53;;;;;;;;;;5071981;28;20063;-61
2023/10/25 02:41:26;;;;;;;29.73;13.57;;;;;;;;;;5073291;28;20074;-61
2023/10/25 02:43:53;;;;;;;25.57;13.93;;;;;;;;;;5062622;28;20488;-60
2023/10/25 02:46:19;;;;;;;27.13;13.57;;;;;;;;;;5067410;28;20059;-60
2023/10/25 02:48:46;;;;;;;31.37;15.27;;;;;;;;;;5073244;28;20540;-61
2023/10/25 02:51:12;;;;;;;22.37;12.43;;;;;;;;;;5072622;28;20036;-60
2023/10/25 02:53:38;;;;;;;31.60;12.63;;;;;;;;;;5071533;28;20044;-60
2023/10/25 02:56:05;;;;;;;28.57;13.90;;;;;;;;;;5052492;28;20041;-60
2023/10/25 02:58:31;;;;;;;29.67;13.20;;;;;;;;;;5053157;28;20084;-60
2023/10/25 03:00:58;;;;;;;28.37;14.00;;;;;;;;;;5055676;28;20083;-60
2023/10/25 03:03:25;;;;;;;27.30;13.73;;;;;;;;;;5052299;28;20048;-60
2023/10/25 03:05:51;;;;;;;28.77;14.43;;;;;;;;;;5053106;28;20047;-60
2023/10/25 03:08:17;;;;;;;31.00;15.33;;;;;;;;;;5052287;28;20060;-61
2023/10/25 03:10:43;;;;;;;29.73;14.63;;;;;;;;;;5052888;28;20060;-61
2023/10/25 03:13:09;;;;;;;28.80;15.80;;;;;;;;;;5052748;28;20403;-60
2023/10/25 03:15:35;;;;;;;26.40;14.27;;;;;;;;;;5052038;28;20060;-60
2023/10/25 03:18:02;;;;;;;34.10;16.70;;;;;;;;;;5053349;28;20291;-60
2023/10/25 03:20:28;;;;;;;30.10;15.70;;;;;;;;;;5064626;28;20568;-60
2023/10/25 03:22:54;;;;;;;30.43;17.17;;;;;;;;;;5051189;28;20056;-61
2023/10/25 03:25:20;;;;;;;25.93;13.70;;;;;;;;;;5052073;28;20044;-60
2023/10/25 03:27:46;;;;;;;29.70;14.20;;;;;;;;;;5052493;28;20041;-60
2023/10/25 03:30:12;;;;;;;26.13;15.20;;;;;;;;;;5051878;28;20049;-60
2023/10/25 03:32:38;;;;;;;27.73;15.20;;;;;;;;;;5050794;28;20063;-60
2023/10/25 03:35:05;;;;;;;24.80;14.70;;;;;;;;;;5050992;28;20044;-60
2023/10/25 03:37:32;;;;;;;30.00;15.10;;;;;;;;;;5050968;28;20037;-61
2023/10/25 03:39:58;;;;;;;29.33;14.50;;;;;;;;;;5050824;28;20048;-63
2023/10/25 03:42:24;;;;;;;32.67;15.43;;;;;;;;;;5050756;28;20045;-61
2023/10/25 03:44:50;;;;;;;32.23;16.67;;;;;;;;;;5051143;28;20047;-60
2023/10/25 03:47:16;;;;;;;38.50;18.07;;;;;;;;;;5051079;28;20044;-60
2023/10/25 03:49:42;;;;;;;28.17;14.83;;;;;;;;;;5050341;28;20072;-60
2023/10/25 03:52:08;;;;;;;26.90;15.03;;;;;;;;;;5050987;28;20072;-61
2023/10/25 03:54:38;;;;;;;41.20;16.97;;;;;;;;;;5051016;28;20496;-61
2023/10/25 03:57:04;;;;;;;27.30;14.17;;;;;;;;;;5070836;28;20048;-60
2023/10/25 03:59:30;;;;;;;28.67;13.77;;;;;;;;;;5068730;28;20082;-61
2023/10/25 04:01:56;;;;;;;28.13;14.60;;;;;;;;;;5062390;28;20053;-60
2023/10/25 04:04:22;;;;;;;32.27;15.70;;;;;;;;;;5050802;28;20048;-60
2023/10/25 04:06:48;;;;;;;30.70;15.30;;;;;;;;;;5050745;28;20033;-60
2023/10/25 04:09:14;;;;;;;38.67;15.70;;;;;;;;;;5050147;28;20049;-60
2023/10/25 04:11:40;;;;;;;39.30;16.70;;;;;;;;;;5050778;28;20048;-60
2023/10/25 04:14:06;;;;;;;28.90;15.27;;;;;;;;;;5050239;28;20411;-60
2023/10/25 04:16:32;;;;;;;25.77;14.37;;;;;;;;;;5050615;28;20065;-61
2023/10/25 04:18:58;;;;;;;32.63;15.43;;;;;;;;;;5052756;28;20052;-60
2023/10/25 04:21:24;;;;;;;26.17;13.33;;;;;;;;;;5056943;28;20033;-60
2023/10/25 04:23:50;;;;;;;30.10;13.97;;;;;;;;;;5070190;28;20044;-60
2023/10/25 04:26:16;;;;;;;36.97;16.07;;;;;;;;;;5055065;28;20037;-61
2023/10/25 04:28:43;;;;;;;30.80;14.73;;;;;;;;;;5050414;28;20041;-60
2023/10/25 04:31:09;;;;;;;36.90;14.33;;;;;;;;;;5066398;28;20052;-60
2023/10/25 04:33:37;;;;;;;33.27;16.40;;;;;;;;;;5070035;28;20125;-61
2023/10/25 04:36:03;;;;;;;28.07;13.63;;;;;;;;;;5069883;28;20048;-60
2023/10/25 04:38:30;;;;;;;30.67;15.47;;;;;;;;;;5069098;28;20080;-60
2023/10/25 04:40:56;;;;;;;33.40;16.57;;;;;;;;;;5054622;28;20056;-60
2023/10/25 04:43:22;;;;;;;30.93;15.87;;;;;;;;;;5049511;28;20110;-60
2023/10/25 04:45:48;;;;;;;28.57;14.63;;;;;;;;;;5050007;28;20140;-60
2023/10/25 04:48:14;;;;;;;31.50;15.30;;;;;;;;;;5049760;28;20053;-61
2023/10/25 04:50:40;;;;;;;32.37;13.67;;;;;;;;;;5050077;28;20095;-61
2023/10/25 04:53:07;;;;;;;32.67;14.47;;;;;;;;;;5049360;28;20045;-62
2023/10/25 04:55:36;;;;;;;26.63;14.37;;;;;;;;;;5062757;28;20398;-63
2023/10/25 04:58:03;;;;;;;31.63;14.57;;;;;;;;;;5069535;28;20090;-62
2023/10/25 05:00:29;;;;;;;29.80;14.03;;;;;;;;;;5057357;28;20051;-63
2023/10/25 05:02:56;;;;;;;26.37;13.97;;;;;;;;;;5049559;28;20049;-61
2023/10/25 05:05:22;;;;;;;29.40;14.80;;;;;;;;;;5049771;28;20053;-61
2023/10/25 05:07:48;;;;;;;27.20;14.13;;;;;;;;;;5061350;28;20546;-61
2023/10/25 05:10:14;;;;;;;37.60;17.17;;;;;;;;;;5064627;28;20041;-61
2023/10/25 05:12:42;;;;;;;30.90;15.03;;;;;;;;;;5047994;28;20420;-61
2023/10/25 05:15:13;;;;;;;30.07;13.83;;;;;;;;;;5049313;28;20426;-61
2023/10/25 05:17:39;;;;;;;33.40;14.93;;;;;;;;;;5068682;28;20044;-61
2023/10/25 05:20:06;;;;;;;34.10;15.40;;;;;;;;;;5069552;28;20052;-60
2023/10/25 05:22:34;;;;;;;32.97;15.47;;;;;;;;;;5065065;28;20036;-61
2023/10/25 05:25:00;;;;;;;32.87;15.63;;;;;;;;;;5049435;28;20495;-61
2023/10/25 05:27:26;;;;;;;33.77;16.13;;;;;;;;;;5048993;28;20086;-60
2023/10/25 05:29:53;;;;;;;39.80;17.37;;;;;;;;;;5052951;28;20056;-61
2023/10/25 05:32:22;;;;;;;35.20;16.60;;;;;;;;;;5060970;28;20048;-61
2023/10/25 05:34:48;;;;;;;39.27;15.97;;;;;;;;;;5068872;28;20054;-61
2023/10/25 05:37:15;;;;;;;38.00;16.97;;;;;;;;;;5050848;28;20073;-61
2023/10/25 05:39:42;;;;;;;47.83;19.00;;;;;;;;;;5069095;28;20486;-61
2023/10/25 05:42:08;;;;;;;36.60;17.03;;;;;;;;;;5068619;28;20502;-61
2023/10/25 05:44:34;;;;;;;41.50;16.80;;;;;;;;;;5068857;28;20048;-61
2023/10/25 05:47:00;;;;;;;34.47;16.17;;;;;;;;;;5067619;28;20084;-61
2023/10/25 05:49:26;;;;;;;40.50;16.83;;;;;;;;;;5068410;28;20841;-61
2023/10/25 05:51:53;;;;;;;31.27;16.93;;;;;;;;;;5068638;28;20169;-61
2023/10/25 05:54:19;;;;;;;41.50;18.57;;;;;;;;;;5068497;28;20044;-61
2023/10/25 05:56:45;;;;;;;34.23;17.03;;;;;;;;;;5067153;28;20911;-61
2023/10/25 05:59:11;;;;;;;39.97;17.30;;;;;;;;;;5068515;28;20091;-61
2023/10/25 06:01:44;;;;;;;47.43;18.33;;;;;;;;;;5068866;28;20132;-61
2023/10/25 06:04:12;;;;;;;34.20;17.75;;;;;;;;;;5067162;28;20437;-61
2023/10/25 06:06:38;;;;;;;34.37;17.67;;;;;;;;;;5063680;28;20040;-61
2023/10/25 06:09:05;;;;;;;41.30;18.77;;;;;;;;;;5047990;28;20418;-61
2023/10/25 06:11:31;;;;;;;47.63;20.07;;;;;;;;;;5047981;28;20123;-61
2023/10/25 06:13:57;;;;;;;45.17;18.70;;;;;;;;;;5048167;28;20461;-61
2023/10/25 06:16:23;;;;;;;48.07;20.43;;;;;;;;;;5048368;28;20052;-61
2023/10/25 06:18:49;;;;;;;39.37;19.30;;;;;;;;;;5048357;28;20041;-61
2023/10/25 06:21:15;;;;;;;47.07;20.50;;;;;;;;;;5048559;28;20041;-61
2023/10/25 06:23:41;;;;;;;41.83;21.57;;;;;;;;;;5048332;28;20155;-61
2023/10/25 06:26:07;;;;;;;42.37;21.07;;;;;;;;;;5056355;28;20800;-61
2023/10/25 06:28:34;;;;;;;48.10;22.73;;;;;;;;;;5054668;28;20105;-61
2023/10/25 06:31:00;;;;;;;42.13;20.63;;;;;;;;;;5048341;28;20097;-61
2023/10/25 06:33:26;;;;;;;54.53;23.73;;;;;;;;;;5047872;28;20415;-61
2023/10/25 06:35:52;;;;;;;47.53;21.87;;;;;;;;;;5048001;28;20071;-61
2023/10/25 06:38:18;;;;;;;46.83;21.87;;;;;;;;;;5047179;28;20053;-61
2023/10/25 06:40:44;;;;;;;57.63;24.87;;;;;;;;;;5055249;28;20173;-61
2023/10/25 06:43:10;;;;;;;52.57;24.13;;;;;;;;;;5066244;28;20098;-61
2023/10/25 06:45:37;;;;;;;49.90;25.17;;;;;;;;;;5058384;28;20045;-61
2023/10/25 06:48:03;;;;;;;54.40;24.07;;;;;;;;;;5047665;28;20469;-61
2023/10/25 06:50:29;;;;;;;50.97;24.77;;;;;;;;;;5054714;28;20081;-61
2023/10/25 06:52:55;;;;;;;52.67;25.33;;;;;;;;;;5052931;28;20037;-61
2023/10/25 06:55:21;;;;;;;43.87;23.23;;;;;;;;;;5049958;28;20123;-61
2023/10/25 06:57:48;;;;;;;50.37;26.17;;;;;;;;;;5046910;28;20169;-61
2023/10/25 07:00:14;;;;;;;53.40;25.70;;;;;;;;;;5050341;28;20041;-60
2023/10/25 07:03:06;;;;;;;45.23;23.07;;;;;;;;;;5047137;28;20041;-61
2023/10/25 07:05:32;;;;;;;41.80;24.30;;;;;;;;;;5061447;28;20045;-60
2023/10/25 07:07:59;;;;;;;40.97;22.90;;;;;;;;;;5061194;28;20545;-61
2023/10/25 07:10:25;;;;;;;51.47;25.63;;;;;;;;;;5056157;28;20037;-61
2023/10/25 07:12:51;;;;;;;49.40;23.87;;;;;;;;;;5064707;28;20053;-61
2023/10/25 07:15:18;;;;;;;40.70;19.70;;;;;;;;;;5067348;28;20415;-61
2023/10/25 07:17:45;;;;;;;40.37;21.30;;;;;;;;;;5059532;28;20049;-61
2023/10/25 07:20:11;;;;;;;50.87;21.40;;;;;;;;;;5048616;28;20830;-61
2023/10/25 07:22:38;;;;;;;41.53;20.43;;;;;;;;;;5049432;28;20131;-61
2023/10/25 07:25:04;;;;;;;32.10;19.63;;;;;;;;;;5055921;28;20063;-61
2023/10/25 07:27:30;;;;;;;41.77;20.27;;;;;;;;;;5067384;28;20574;-61
2023/10/25 07:29:56;;;;;;;39.17;21.27;;;;;;;;;;5049735;28;20057;-61
2023/10/25 07:32:22;;;;;;;35.20;18.83;;;;;;;;;;5068423;28;20052;-61
2023/10/25 07:34:48;;;;;;;33.03;18.50;;;;;;;;;;5070633;28;20452;-61
2023/10/25 07:37:15;;;;;;;40.13;18.73;;;;;;;;;;5069219;28;20056;-62
2023/10/25 07:39:41;;;;;;;33.23;18.00;;;;;;;;;;5049996;28;20053;-61
2023/10/25 07:42:07;;;;;;;39.50;20.80;;;;;;;;;;5049928;28;20044;-61
2023/10/25 07:44:34;;;;;;;36.37;19.27;;;;;;;;;;5059769;28;20049;-62
2023/10/25 07:47:00;;;;;;;34.23;19.00;;;;;;;;;;5058609;28;20052;-61
2023/10/25 07:49:26;;;;;;;36.00;19.20;;;;;;;;;;5065208;28;20550;-61
2023/10/25 07:51:54;;;;;;;33.43;17.10;;;;;;;;;;5068034;28;20403;-62
2023/10/25 07:54:20;;;;;;;43.27;19.57;;;;;;;;;;5049517;28;20440;-61
2023/10/25 07:56:46;;;;;;;29.83;16.13;;;;;;;;;;5056834;28;20076;-62
2023/10/25 07:59:12;;;;;;;35.67;19.10;;;;;;;;;;5070503;28;20084;-61
2023/10/25 08:01:38;;;;;;;26.03;16.43;;;;;;;;;;5071115;28;20051;-61
2023/10/25 08:04:07;;;;;;;29.77;18.30;;;;;;;;;;5070613;28;20751;-62
2023/10/25 08:06:33;;;;;;;27.17;15.47;;;;;;;;;;5070065;28;20526;-62
2023/10/25 08:08:59;;;;;;;25.37;15.50;;;;;;;;;;5066838;28;20072;-61
2023/10/25 08:11:25;;;;;;;32.83;16.70;;;;;;;;;;5050749;28;20048;-62
2023/10/25 08:13:51;;;;;;;32.33;18.07;;;;;;;;;;5050626;28;20041;-61
2023/10/25 08:16:17;;;;;;;34.10;16.67;;;;;;;;;;5049373;28;20041;-63
2023/10/25 08:18:43;;;;;;;29.07;16.90;;;;;;;;;;5050676;28;20061;-63
2023/10/25 08:21:13;;;;;;;33.73;17.50;;;;;;;;;;5050419;28;20131;-62
2023/10/25 08:23:40;;;;;;;32.37;16.97;;;;;;;;;;5048890;28;20127;-62
2023/10/25 08:26:06;;;;;;;30.10;16.97;;;;;;;;;;5050116;28;20041;-62
2023/10/25 08:28:32;;;;;;;31.97;14.33;;;;;;;;;;5049341;28;20084;-61
2023/10/25 08:30:58;;;;;;;32.00;17.97;;;;;;;;;;5049547;28;20501;-62
2023/10/25 08:33:24;;;;;;;23.23;14.80;;;;;;;;;;5049677;28;20041;-61
2023/10/25 08:36:01;;;;;;;29.03;15.63;;;;;;;;;;5047851;28;20052;-62
2023/10/25 08:38:27;;;;;;;22.90;13.90;;;;;;;;;;5049270;28;20602;-62
2023/10/25 08:40:53;;;;;;;26.27;13.50;;;;;;;;;;5049597;28;20048;-62
2023/10/25 08:43:20;;;;;;;30.47;14.97;;;;;;;;;;5049287;28;20056;-62
2023/10/25 08:45:46;;;;;;;23.57;14.57;;;;;;;;;;5049880;28;20045;-63
2023/10/25 08:48:12;;;;;;;24.10;13.23;;;;;;;;;;5049147;28;20057;-62
2023/10/25 08:50:38;;;;;;;22.97;12.97;;;;;;;;;;5052556;28;20059;-61
2023/10/25 08:53:04;;;;;;;23.60;12.80;;;;;;;;;;5065937;28;20047;-62
2023/10/25 08:55:30;;;;;;;19.40;12.63;;;;;;;;;;5069095;28;20406;-62
2023/10/25 08:57:56;;;;;;;18.80;11.60;;;;;;;;;;5069213;28;20045;-62
2023/10/25 09:00:30;;;;;;;21.30;12.53;;;;;;;;;;5069270;28;20510;-62
2023/10/25 09:02:56;;;;;;;21.43;12.50;;;;;;;;;;5069017;28;20048;-61
2023/10/25 09:05:22;;;;;;;22.67;13.03;;;;;;;;;;5056105;28;20045;-61
2023/10/25 09:07:48;;;;;;;19.57;10.80;;;;;;;;;;5064453;28;20048;-62
2023/10/25 09:10:17;;;;;;;14.20;10.00;;;;;;;;;;5069183;28;20051;-61
2023/10/25 09:12:43;;;;;;;18.43;9.73;;;;;;;;;;5056573;28;20059;-61
2023/10/25 09:15:09;;;;;;;19.30;10.17;;;;;;;;;;5048748;28;20142;-62
2023/10/25 09:17:35;;;;;;;18.23;9.43;;;;;;;;;;5049004;28;20597;-61
2023/10/25 09:20:02;;;;;;;17.63;9.27;;;;;;;;;;5048785;28;20792;-62
2023/10/25 09:22:30;;;;;;;14.43;7.97;;;;;;;;;;5048757;28;20501;-62
2023/10/25 09:24:56;;;;;;;14.60;7.87;;;;;;;;;;5048457;28;20048;-62
2023/10/25 09:27:23;;;;;;;18.27;8.47;;;;;;;;;;5048585;28;20150;-62
2023/10/25 09:29:50;;;;;;;12.70;8.10;;;;;;;;;;5050028;28;20044;-62
2023/10/25 09:32:17;;;;;;;13.27;6.10;;;;;;;;;;5048413;28;20745;-62
2023/10/25 09:34:43;;;;;;;12.03;6.53;;;;;;;;;;5048392;28;20055;-62
2023/10/25 09:37:09;;;;;;;14.80;6.23;;;;;;;;;;5048566;28;20041;-62
2023/10/25 09:39:37;;;;;;;11.90;6.40;;;;;;;;;;5048825;28;20105;-62
2023/10/25 09:42:03;;;;;;;11.90;5.63;;;;;;;;;;5058738;28;20091;-62
2023/10/25 09:44:31;;;;;;;11.50;6.17;;;;;;;;;;5068480;28;20048;-62
2023/10/25 09:46:59;;;;;;;12.40;6.03;;;;;;;;;;5067805;28;20124;-62
2023/10/25 09:49:31;;;;;;;11.10;5.13;;;;;;;;;;5067752;28;20044;-61
2023/10/25 09:52:08;;;;;;;10.30;5.20;;;;;;;;;;5068418;28;20119;-62
2023/10/25 09:54:35;;;;;;;9.80;5.90;;;;;;;;;;5068415;28;20421;-62
2023/10/25 09:57:04;;;;;;;12.07;5.07;;;;;;;;;;5068068;28;20045;-61
2023/10/25 09:59:33;;;;;;;7.57;5.47;;;;;;;;;;5067879;28;20096;-61
2023/10/25 10:02:01;;;;;;;9.33;5.10;;;;;;;;;;5067843;28;20040;-61
2023/10/25 10:04:27;;;;;;;10.10;5.03;;;;;;;;;;5068282;28;20045;-61
2023/10/25 10:07:08;;;;;;;11.40;5.37;;;;;;;;;;5068663;28;20530;-61
2023/10/25 10:09:53;;;;;;;10.77;5.77;;;;;;;;;;5068512;28;20060;-63
2023/10/25 10:12:19;;;;;;;12.27;5.10;;;;;;;;;;5048709;28;20095;-61
2023/10/25 10:14:45;;;;;;;11.03;5.20;;;;;;;;;;5047865;28;20045;-61
2023/10/25 10:17:16;;;;;;;11.87;4.70;;;;;;;;;;5047565;28;20423;-61
2023/10/25 10:19:43;;;;;;;8.43;4.57;;;;;;;;;;5047847;28;20052;-61
2023/10/25 10:22:13;;;;;;;11.30;5.63;;;;;;;;;;5047763;28;20562;-62
2023/10/25 10:24:46;;;;;;;9.43;4.80;;;;;;;;;;5047923;28;20089;-61
2023/10/25 10:27:13;;;;;;;19.63;5.47;;;;;;;;;;5047982;28;20542;-61
2023/10/25 10:29:39;;;;;;;9.67;4.97;;;;;;;;;;5047817;28;20049;-61
2023/10/25 10:32:07;;;;;;;11.37;5.93;;;;;;;;;;5047748;28;20041;-61
2023/10/25 10:34:49;;;;;;;12.87;4.87;;;;;;;;;;5047568;28;20423;-61
2023/10/25 10:37:16;;;;;;;11.93;5.00;;;;;;;;;;5047751;28;20419;-61
2023/10/25 10:39:57;;;;;;;10.43;5.00;;;;;;;;;;5047691;28;20123;-61
2023/10/25 10:42:27;;;;;;;7.80;5.07;;;;;;;;;;5047650;28;20045;-62
2023/10/25 10:44:53;;;;;;;10.60;5.23;;;;;;;;;;5047791;28;20049;-61
2023/10/25 10:47:22;;;;;;;9.60;5.03;;;;;;;;;;5047607;28;20127;-61
2023/10/25 10:49:57;;;;;;;8.40;4.70;;;;;;;;;;5047826;28;20041;-61
2023/10/25 10:52:23;;;;;;;10.23;5.07;;;;;;;;;;5047721;28;20055;-62
2023/10/25 10:54:49;;;;;;;8.07;5.17;;;;;;;;;;5052037;28;20049;-61
2023/10/25 10:57:16;;;;;;;9.70;5.50;;;;;;;;;;5067366;28;20110;-61
2023/10/25 10:59:45;;;;;;;13.60;6.43;;;;;;;;;;5069763;28;20119;-62
2023/10/25 11:02:12;;;;;;;9.23;5.43;;;;;;;;;;5071427;28;20040;-62
2023/10/25 11:04:42;;;;;;;17.53;5.57;;;;;;;;;;5071445;28;20052;-61
2023/10/25 11:07:08;;;;;;;9.20;5.37;;;;;;;;;;5071842;28;20048;-61
2023/10/25 11:09:34;;;;;;;7.57;5.00;;;;;;;;;;5050659;28;20053;-62
2023/10/25 11:12:10;;;;;;;9.93;6.50;;;;;;;;;;5051012;28;20041;-61
2023/10/25 11:14:54;;;;;;;11.23;5.93;;;;;;;;;;5051526;28;20572;-62
2023/10/25 11:17:21;;;;;;;8.80;5.77;;;;;;;;;;5051475;28;20045;-61
2023/10/25 11:19:48;;;;;;;12.17;5.93;;;;;;;;;;5051593;28;20056;-61
2023/10/25 11:22:14;;;;;;;11.93;5.60;;;;;;;;;;5051653;28;20053;-61
2023/10/25 11:24:40;;;;;;;9.37;5.90;;;;;;;;;;5071153;28;20494;-61
2023/10/25 11:27:06;;;;;;;12.23;6.50;;;;;;;;;;5071442;28;20098;-61
2023/10/25 11:29:39;;;;;;;10.53;5.90;;;;;;;;;;5071496;28;20049;-62
2023/10/25 11:32:17;;;;;;;13.00;6.65;;;;;;;;;;5071030;28;20044;-61
2023/10/25 11:34:43;;;;;;;15.80;7.00;;;;;;;;;;5070672;28;20052;-61
2023/10/25 11:37:11;;;;;;;12.60;6.17;;;;;;;;;;5067453;28;20041;-62
2023/10/25 11:39:56;;;;;;;13.40;6.50;;;;;;;;;;5050376;28;20053;-61
2023/10/25 11:42:22;;;;;;;13.27;6.90;;;;;;;;;;5050672;28;20107;-62
2023/10/25 11:44:49;;;;;;;15.87;8.03;;;;;;;;;;5050835;28;20448;-61
2023/10/25 11:47:18;;;;;;;16.50;8.17;;;;;;;;;;5050784;28;20446;-62
2023/10/25 11:49:44;;;;;;;19.27;9.00;;;;;;;;;;5050146;28;21052;-62
2023/10/25 11:52:10;;;;;;;16.27;9.73;;;;;;;;;;5049171;28;20095;-62
2023/10/25 11:54:36;;;;;;;20.33;11.30;;;;;;;;;;5055827;28;20040;-62
2023/10/25 11:57:02;;;;;;;34.37;13.23;;;;;;;;;;5070622;28;20051;-62
2023/10/25 11:59:28;;;;;;;23.57;11.10;;;;;;;;;;5070788;28;20091;-62
2023/10/25 12:01:54;;;;;;;33.43;14.17;;;;;;;;;;5069847;28;20084;-62
2023/10/25 12:04:20;;;;;;;26.23;13.23;;;;;;;;;;5070412;28;20056;-62
2023/10/25 12:06:46;;;;;;;30.77;15.67;;;;;;;;;;5068513;28;20444;-62
2023/10/25 12:09:12;;;;;;;39.17;16.50;;;;;;;;;;5062125;28;20041;-62
2023/10/25 12:11:38;;;;;;;31.87;14.33;;;;;;;;;;5048825;28;20131;-62
2023/10/25 12:14:04;;;;;;;38.97;15.10;;;;;;;;;;5050526;28;20045;-62
2023/10/25 12:16:30;;;;;;;43.50;17.53;;;;;;;;;;5050137;28;20102;-62
2023/10/25 12:18:57;;;;;;;33.87;15.93;;;;;;;;;;5049634;28;20041;-62
2023/10/25 12:21:23;;;;;;;38.60;16.90;;;;;;;;;;5048535;28;20041;-62
2023/10/25 12:23:49;;;;;;;51.17;20.20;;;;;;;;;;5049613;28;20491;-62
2023/10/25 12:26:15;;;;;;;22.90;12.70;;;;;;;;;;5049817;28;20041;-62
2023/10/25 12:28:41;;;;;;;42.30;17.80;;;;;;;;;;5050148;28;20073;-62
2023/10/25 12:31:07;;;;;;;32.57;16.93;;;;;;;;;;5049675;28;20048;-63
2023/10/25 12:33:33;;;;;;;39.30;18.67;;;;;;;;;;5049791;28;20427;-62
2023/10/25 12:36:00;;;;;;;24.20;14.33;;;;;;;;;;5049580;28;20125;-61
2023/10/25 12:38:26;;;;;;;31.70;15.70;;;;;;;;;;5064218;28;20064;-62
2023/10/25 12:40:52;;;;;;;37.97;16.47;;;;;;;;;;5068870;28;20116;-62
2023/10/25 12:43:18;;;;;;;33.43;15.63;;;;;;;;;;5068229;28;20056;-62
2023/10/25 12:45:44;;;;;;;28.63;15.47;;;;;;;;;;5069378;28;20105;-62
2023/10/25 12:48:10;;;;;;;29.33;14.10;;;;;;;;;;5068010;28;20045;-62
2023/10/25 12:50:36;;;;;;;24.53;12.90;;;;;;;;;;5068490;28;20051;-62
2023/10/25 12:53:02;;;;;;;19.00;11.00;;;;;;;;;;5069370;28;20055;-62
2023/10/25 12:55:28;;;;;;;22.43;12.50;;;;;;;;;;5069080;28;20143;-62
2023/10/25 12:57:54;;;;;;;27.57;14.07;;;;;;;;;;5069184;28;20048;-62
2023/10/25 13:00:20;;;;;;;27.87;14.57;;;;;;;;;;5069343;28;20569;-62
2023/10/25 13:02:46;;;;;;;24.77;12.03;;;;;;;;;;5069335;28;20159;-62
2023/10/25 13:05:12;;;;;;;22.37;12.43;;;;;;;;;;5054947;28;20075;-61
2023/10/25 13:07:39;;;;;;;20.87;12.27;;;;;;;;;;5049233;28;20037;-62
2023/10/25 13:10:05;;;;;;;29.43;12.83;;;;;;;;;;5048848;28;20080;-62
2023/10/25 13:12:35;;;;;;;26.47;14.43;;;;;;;;;;5048584;28;20694;-62
2023/10/25 13:15:01;;;;;;;24.53;12.60;;;;;;;;;;5048856;28;20426;-62
2023/10/25 13:17:27;;;;;;;21.90;11.57;;;;;;;;;;5049184;28;20040;-62
2023/10/25 13:19:55;;;;;;;25.13;13.13;;;;;;;;;;5049238;28;20128;-62
2023/10/25 13:22:21;;;;;;;23.93;11.43;;;;;;;;;;5048101;28;20094;-62
2023/10/25 13:24:48;;;;;;;19.63;10.77;;;;;;;;;;5048454;28;20636;-62
2023/10/25 13:27:14;;;;;;;22.17;10.87;;;;;;;;;;5048675;28;20053;-62
2023/10/25 13:29:41;;;;;;;19.77;11.77;;;;;;;;;;5048769;28;20061;-62
2023/10/25 13:32:08;;;;;;;21.73;12.37;;;;;;;;;;5048707;28;20071;-62
2023/10/25 13:34:34;;;;;;;21.70;11.90;;;;;;;;;;5048111;28;20049;-62
2023/10/25 13:37:00;;;;;;;23.90;12.70;;;;;;;;;;5048514;28;20045;-62
2023/10/25 13:39:26;;;;;;;22.10;12.97;;;;;;;;;;5048400;28;20444;-62
2023/10/25 13:41:52;;;;;;;20.93;11.13;;;;;;;;;;5048659;28;20045;-62
2023/10/25 13:44:19;;;;;;;25.27;12.83;;;;;;;;;;5048413;28;20106;-62
2023/10/25 13:46:45;;;;;;;20.70;12.13;;;;;;;;;;5054443;28;20044;-62
2023/10/25 13:49:11;;;;;;;20.13;12.07;;;;;;;;;;5068493;28;20032;-62
2023/10/25 13:51:40;;;;;;;26.20;11.50;;;;;;;;;;5067876;28;20052;-62
2023/10/25 13:54:06;;;;;;;16.67;9.70;;;;;;;;;;5068527;28;20044;-62
2023/10/25 13:56:32;;;;;;;17.30;10.17;;;;;;;;;;5068466;28;20045;-62
2023/10/25 13:58:58;;;;;;;18.30;9.93;;;;;;;;;;5067975;28;20045;-62
2023/10/25 14:01:24;;;;;;;24.13;11.70;;;;;;;;;;5062487;28;20047;-62
2023/10/25 14:03:50;;;;;;;21.73;10.63;;;;;;;;;;5048459;28;20124;-62
2023/10/25 14:06:16;;;;;;;27.93;12.00;;;;;;;;;;5067964;28;20088;-62
2023/10/25 14:08:43;;;;;;;25.03;12.27;;;;;;;;;;5068018;28;20045;-62
2023/10/25 14:11:09;;;;;;;28.07;12.20;;;;;;;;;;5068284;28;20039;-62
2023/10/25 14:13:35;;;;;;;19.20;10.47;;;;;;;;;;5067850;28;20052;-62
2023/10/25 14:16:10;;;;;;;18.77;11.50;;;;;;;;;;5063523;28;20103;-62
2023/10/25 14:18:37;;;;;;;17.93;9.30;;;;;;;;;;5047679;28;20052;-62
2023/10/25 14:21:03;;;;;;;18.47;10.87;;;;;;;;;;5047745;28;20045;-61